Time;durP1;ratioP1;P1;durP2;ratioP2;P2;SDS_P1;SDS_P2;PMS_P1;PMS_P2;Temp;Humidity;BMP_temperature;BMP_pressure;BME280_temperature;BME280_humidity;BME280_pressure;Samples;Min_cycle;Max_cycle;Signal;HPM_P1;HPM_P2
2022/09/28 04:31:22;;;;;;;;;4.00;4.00;;;;;;;;5556044;22;45489;-63
2022/09/28 04:33:47;;;;;;;;;4.00;4.00;;;;;;;;5035394;28;46171;-62
2022/09/28 04:36:13;;;;;;;;;3.00;3.00;;;;;;;;5033781;28;45522;-62
2022/09/28 04:38:38;;;;;;;;;5.67;1.33;;;;;;;;5035276;28;45478;-62
2022/09/28 04:41:04;;;;;;;;;3.33;2.00;;;;;;;;5035131;28;45339;-62
2022/09/28 04:43:29;;;;;;;;;4.33;3.67;;;;;;;;5036944;28;46550;-62
2022/09/28 04:45:59;;;;;;;;;4.00;3.33;;;;;;;;5035572;28;45518;-62
2022/09/28 04:48:24;;;;;;;;;3.00;3.00;;;;;;;;5028999;28;45742;-61
2022/09/28 04:50:53;;;;;;;;;4.00;4.00;;;;;;;;5037171;28;45314;-62
2022/09/28 04:53:18;;;;;;;;;5.33;4.00;;;;;;;;5037490;28;47073;-63
2022/09/28 04:55:43;;;;;;;;;4.33;4.33;;;;;;;;5035669;28;45993;-62
2022/09/28 04:58:09;;;;;;;;;4.00;4.00;;;;;;;;5037800;28;45275;-63
2022/09/28 05:00:34;;;;;;;;;4.00;4.00;;;;;;;;5041643;28;45608;-63
2022/09/28 05:03:00;;;;;;;;;5.00;5.00;;;;;;;;5040280;28;46111;-62
2022/09/28 05:05:25;;;;;;;;;8.00;5.00;;;;;;;;5044341;28;45624;-63
2022/09/28 05:07:50;;;;;;;;;8.00;5.00;;;;;;;;5042074;28;46000;-62
2022/09/28 05:10:16;;;;;;;;;4.33;3.67;;;;;;;;5048112;28;45736;-63
2022/09/28 05:12:41;;;;;;;;;5.00;4.00;;;;;;;;5043818;28;46383;-63
2022/09/28 05:15:07;;;;;;;;;6.33;4.00;;;;;;;;5047915;28;45594;-63
2022/09/28 05:17:32;;;;;;;;;4.33;4.33;;;;;;;;5040810;28;45385;-62
2022/09/28 05:19:57;;;;;;;;;7.00;5.00;;;;;;;;5034255;28;45395;-63
2022/09/28 05:22:23;;;;;;;;;5.00;5.00;;;;;;;;5040875;28;46931;-63
2022/09/28 05:24:48;;;;;;;;;6.00;6.00;;;;;;;;5042443;28;45559;-63
2022/09/28 05:27:13;;;;;;;;;6.00;5.00;;;;;;;;5036893;28;45362;-63
2022/09/28 05:29:38;;;;;;;;;5.00;5.00;;;;;;;;5046308;28;45345;-61
2022/09/28 05:32:03;;;;;;;;;6.67;6.67;;;;;;;;5044421;28;45462;-62
2022/09/28 05:34:29;;;;;;;;;4.00;4.00;;;;;;;;5044215;28;45458;-61
2022/09/28 05:36:54;;;;;;;;;6.00;4.33;;;;;;;;5040949;28;45657;-62
2022/09/28 05:39:19;;;;;;;;;4.67;4.67;;;;;;;;5032019;28;45442;-58
2022/09/28 05:41:44;;;;;;;;;7.00;7.00;;;;;;;;5039216;28;45907;-62
2022/09/28 05:44:09;;;;;;;;;5.33;4.00;;;;;;;;5041105;28;45327;-64
2022/09/28 05:46:35;;;;;;;;;6.00;5.00;;;;;;;;5040667;28;45525;-64
2022/09/28 05:49:00;;;;;;;;;6.67;6.33;;;;;;;;5040435;28;45389;-64
2022/09/28 05:51:25;;;;;;;;;8.33;5.67;;;;;;;;5040903;28;45965;-64
2022/09/28 05:53:52;;;;;;;;;4.00;2.33;;;;;;;;5040359;28;45308;-64
2022/09/28 05:56:18;;;;;;;;;6.67;6.00;;;;;;;;5040010;28;45447;-64
2022/09/28 05:58:43;;;;;;;;;6.00;6.00;;;;;;;;5052278;28;45339;-64
2022/09/28 06:01:08;;;;;;;;;7.00;5.00;;;;;;;;5039409;28;45396;-64
2022/09/28 06:03:33;;;;;;;;;5.33;4.67;;;;;;;;5032412;28;44860;-64
2022/09/28 06:05:59;;;;;;;;;8.33;7.00;;;;;;;;5038334;28;45482;-64
2022/09/28 06:08:24;;;;;;;;;7.67;7.00;;;;;;;;5047772;28;45328;-64
2022/09/28 06:10:49;;;;;;;;;5.00;5.00;;;;;;;;5047077;28;45273;-64
2022/09/28 06:13:15;;;;;;;;;6.00;6.00;;;;;;;;5045660;28;45256;-65
2022/09/28 06:15:41;;;;;;;;;8.00;6.00;;;;;;;;5038316;28;45502;-64
2022/09/28 06:18:08;;;;;;;;;8.00;6.33;;;;;;;;5051127;28;45453;-64
2022/09/28 06:20:35;;;;;;;;;7.00;5.00;;;;;;;;5043336;28;45481;-64
2022/09/28 06:23:01;;;;;;;;;3.67;3.00;;;;;;;;5046215;28;45572;-64
2022/09/28 06:25:26;;;;;;;;;10.33;7.33;;;;;;;;5034889;28;45459;-65
2022/09/28 06:27:55;;;;;;;;;6.00;6.00;;;;;;;;5035329;28;45618;-65
2022/09/28 06:30:23;;;;;;;;;9.00;6.00;;;;;;;;5035476;28;46303;-66
2022/09/28 06:32:50;;;;;;;;;6.67;5.00;;;;;;;;5031688;28;45760;-66
2022/09/28 06:35:16;;;;;;;;;8.67;6.67;;;;;;;;5038528;28;45280;-66
2022/09/28 06:37:43;;;;;;;;;7.00;7.00;;;;;;;;5017103;28;46327;-66
2022/09/28 06:40:08;;;;;;;;;5.00;5.00;;;;;;;;5038062;28;45827;-66
2022/09/28 06:42:33;;;;;;;;;6.67;5.00;;;;;;;;5042536;28;45370;-66
2022/09/28 06:44:59;;;;;;;;;5.00;4.00;;;;;;;;5043071;28;45747;-66
2022/09/28 06:47:24;;;;;;;;;5.33;5.33;;;;;;;;5036119;28;45418;-67
2022/09/28 06:49:54;;;;;;;;;5.67;4.00;;;;;;;;5034862;28;45298;-67
2022/09/28 06:52:19;;;;;;;;;6.00;5.00;;;;;;;;5058804;28;45283;-67
2022/09/28 06:54:44;;;;;;;;;8.00;6.33;;;;;;;;5041861;28;45425;-66
2022/09/28 06:57:09;;;;;;;;;6.00;4.67;;;;;;;;5051137;28;45345;-66
2022/09/28 06:59:35;;;;;;;;;4.00;3.00;;;;;;;;5053069;28;46217;-66
2022/09/28 07:02:00;;;;;;;;;5.00;5.00;;;;;;;;5035337;28;45446;-66
2022/09/28 07:04:25;;;;;;;;;5.00;5.00;;;;;;;;5035813;28;45564;-66
2022/09/28 07:06:51;;;;;;;;;7.00;5.00;;;;;;;;5052615;28;45277;-66
2022/09/28 07:09:16;;;;;;;;;4.00;4.00;;;;;;;;5043602;28;46133;-67
2022/09/28 07:11:43;;;;;;;;;5.00;5.00;;;;;;;;5030382;28;45574;-67
2022/09/28 07:14:09;;;;;;;;;9.00;6.67;;;;;;;;5041982;28;47398;-67
2022/09/28 07:16:35;;;;;;;;;6.67;6.67;;;;;;;;5043374;28;45474;-66
2022/09/28 07:19:00;;;;;;;;;8.33;6.67;;;;;;;;5042801;28;45438;-66
2022/09/28 07:21:25;;;;;;;;;4.33;4.33;;;;;;;;5042029;28;45473;-67
2022/09/28 07:23:52;;;;;;;;;8.67;5.33;;;;;;;;5039833;28;45383;-67
2022/09/28 07:26:18;;;;;;;;;5.33;5.00;;;;;;;;5041902;28;46520;-67
2022/09/28 07:28:43;;;;;;;;;4.00;4.00;;;;;;;;5031805;28;46986;-67
2022/09/28 07:31:09;;;;;;;;;6.33;5.33;;;;;;;;5041515;28;45362;-67
2022/09/28 07:33:34;;;;;;;;;4.67;4.00;;;;;;;;5038590;28;45559;-67
2022/09/28 07:36:01;;;;;;;;;5.67;5.67;;;;;;;;5041716;28;45795;-66
2022/09/28 07:38:26;;;;;;;;;4.67;4.67;;;;;;;;5039054;28;46202;-66
2022/09/28 07:41:10;;;;;;;;;4.00;4.00;;;;;;;;5037538;28;45296;-67
2022/09/28 07:43:37;;;;;;;;;4.00;4.00;;;;;;;;5037782;28;45477;-67
2022/09/28 07:46:04;;;;;;;;;6.67;4.67;;;;;;;;5042708;28;45514;-66
2022/09/28 07:48:36;;;;;;;;;3.67;2.33;;;;;;;;5038357;28;46065;-68
2022/09/28 07:51:02;;;;;;;;;7.00;4.00;;;;;;;;5043300;28;45760;-67
2022/09/28 07:53:28;;;;;;;;;5.00;3.00;;;;;;;;5040254;28;45620;-68
2022/09/28 07:55:54;;;;;;;;;3.00;3.00;;;;;;;;5040031;28;45422;-67
2022/09/28 07:58:20;;;;;;;;;2.67;2.67;;;;;;;;5038011;28;45413;-67
2022/09/28 08:00:47;;;;;;;;;2.67;1.67;;;;;;;;5041678;28;45943;-67
2022/09/28 08:03:12;;;;;;;;;4.33;1.67;;;;;;;;5046402;28;45353;-67
2022/09/28 08:05:37;;;;;;;;;4.00;3.67;;;;;;;;5037645;28;45416;-67
2022/09/28 08:08:03;;;;;;;;;1.67;1.67;;;;;;;;5034960;28;46058;-67
2022/09/28 08:10:28;;;;;;;;;3.33;2.00;;;;;;;;5036471;28;45387;-67
2022/09/28 08:12:57;;;;;;;;;0.00;0.00;;;;;;;;5041888;28;45741;-66
2022/09/28 08:15:23;;;;;;;;;3.67;2.00;;;;;;;;5037520;28;45456;-66
2022/09/28 08:17:48;;;;;;;;;3.00;2.33;;;;;;;;5039771;28;46184;-66
2022/09/28 08:23:02;;;;;;;;;4.67;2.00;;;;;;;;5038924;28;45457;-67
2022/09/28 08:25:27;;;;;;;;;3.00;2.00;;;;;;;;5037504;28;45443;-66
2022/09/28 08:27:53;;;;;;;;;8.00;7.00;;;;;;;;5036280;28;46395;-66
2022/09/28 08:30:18;;;;;;;;;4.67;3.00;;;;;;;;5025615;28;46371;-66
2022/09/28 08:32:49;;;;;;;;;3.33;1.00;;;;;;;;5036751;28;45418;-67
2022/09/28 08:35:15;;;;;;;;;2.33;1.33;;;;;;;;5041550;28;45338;-66
2022/09/28 08:37:40;;;;;;;;;2.67;1.67;;;;;;;;5039059;28;45373;-67
2022/09/28 08:40:12;;;;;;;;;1.00;1.00;;;;;;;;5039016;28;45505;-67
2022/09/28 08:42:40;;;;;;;;;5.00;2.33;;;;;;;;5045918;28;45421;-67
2022/09/28 08:45:08;;;;;;;;;3.33;2.00;;;;;;;;5046097;28;45563;-68
2022/09/28 08:50:24;;;;;;;;;1.00;1.00;;;;;;;;5041490;28;45441;-67
2022/09/28 08:52:53;;;;;;;;;2.00;2.00;;;;;;;;5043897;28;46918;-68
2022/09/28 08:55:27;;;;;;;;;4.33;3.00;;;;;;;;5039144;28;45499;-67
2022/09/28 08:58:04;;;;;;;;;2.00;2.00;;;;;;;;5040006;28;46403;-67
2022/09/28 09:00:37;;;;;;;;;1.67;1.00;;;;;;;;5032001;28;45576;-66
2022/09/28 09:03:08;;;;;;;;;7.00;2.33;;;;;;;;5049879;28;45447;-67
2022/09/28 09:05:42;;;;;;;;;3.00;1.33;;;;;;;;5028319;28;45439;-66
2022/09/28 09:08:19;;;;;;;;;2.00;2.00;;;;;;;;5048527;28;45263;-66
2022/09/28 09:10:48;;;;;;;;;2.67;1.00;;;;;;;;5039892;28;45543;-66
2022/09/28 09:13:17;;;;;;;;;3.67;2.00;;;;;;;;5037151;28;45410;-68
2022/09/28 09:15:48;;;;;;;;;2.00;2.00;;;;;;;;5045067;28;46038;-67
2022/09/28 09:18:20;;;;;;;;;2.67;1.67;;;;;;;;5039357;28;45536;-67
2022/09/28 09:21:05;;;;;;;;;0.67;0.67;;;;;;;;5039339;28;45471;-66
2022/09/28 09:23:41;;;;;;;;;2.00;1.00;;;;;;;;4988021;28;45553;-66
2022/09/28 09:26:20;;;;;;;;;2.00;2.00;;;;;;;;5035573;28;45488;-66
2022/09/28 09:29:04;;;;;;;;;1.00;1.00;;;;;;;;5048754;28;45441;-66
2022/09/28 09:31:43;;;;;;;;;1.33;1.00;;;;;;;;5044601;28;45544;-66
2022/09/28 09:34:15;;;;;;;;;2.50;0.25;;;;;;;;5037414;28;45221;-67
2022/09/28 09:36:53;;;;;;;;;3.00;2.00;;;;;;;;5043199;28;45485;-67
2022/09/28 09:39:21;;;;;;;;;2.75;1.00;;;;;;;;5042259;28;45465;-66
2022/09/28 09:41:46;;;;;;;;;2.00;2.00;;;;;;;;5043675;28;45439;-66
2022/09/28 09:44:31;;;;;;;;;2.00;2.00;;;;;;;;5042916;28;45357;-66
2022/09/28 09:47:05;;;;;;;;;3.00;3.00;;;;;;;;5037809;28;45554;-68
2022/09/28 09:49:35;;;;;;;;;1.00;1.00;;;;;;;;5039154;28;45347;-66
2022/09/28 09:52:19;;;;;;;;;2.00;0.75;;;;;;;;5034852;28;45418;-67
2022/09/28 09:54:48;;;;;;;;;1.00;1.00;;;;;;;;5038571;28;45493;-66
2022/09/28 09:57:20;;;;;;;;;3.00;1.75;;;;;;;;5046752;28;45273;-66
2022/09/28 09:59:46;;;;;;;;;3.00;1.75;;;;;;;;5038586;28;46226;-67
2022/09/28 10:02:18;;;;;;;;;5.25;3.25;;;;;;;;5036341;28;47180;-66
2022/09/28 10:04:45;;;;;;;;;2.00;2.00;;;;;;;;5037375;28;45611;-66
2022/09/28 10:07:14;;;;;;;;;1.75;1.50;;;;;;;;5022169;28;45555;-66
2022/09/28 10:09:44;;;;;;;;;0.50;0.00;;;;;;;;5033062;28;45580;-66
2022/09/28 10:12:14;;;;;;;;;1.00;1.00;;;;;;;;5036748;28;45401;-66
2022/09/28 10:14:39;;;;;;;;;1.50;1.25;;;;;;;;5044101;28;45279;-66
2022/09/28 10:17:04;;;;;;;;;1.75;1.00;;;;;;;;5035787;28;45963;-67
2022/09/28 10:19:31;;;;;;;;;4.50;0.75;;;;;;;;5033636;28;45377;-66
2022/09/28 10:21:58;;;;;;;;;2.00;1.00;;;;;;;;5034751;28;45844;-66
2022/09/28 10:24:23;;;;;;;;;1.50;0.75;;;;;;;;5030622;28;45445;-66
2022/09/28 10:26:51;;;;;;;;;5.00;1.25;;;;;;;;5034709;28;45660;-66
2022/09/28 10:29:24;;;;;;;;;1.00;1.00;;;;;;;;5039676;28;46198;-66
2022/09/28 10:31:50;;;;;;;;;1.50;1.00;;;;;;;;5037711;28;45513;-66
2022/09/28 10:34:23;;;;;;;;;1.00;1.00;;;;;;;;5037744;28;45521;-65
2022/09/28 10:36:51;;;;;;;;;1.00;0.75;;;;;;;;5038256;28;45405;-65
2022/09/28 10:39:35;;;;;;;;;0.00;0.00;;;;;;;;5038671;28;46415;-65
2022/09/28 10:42:03;;;;;;;;;0.50;0.50;;;;;;;;5037971;28;45352;-66
2022/09/28 10:44:30;;;;;;;;;1.00;1.00;;;;;;;;5042860;28;45770;-66
2022/09/28 10:46:57;;;;;;;;;1.50;1.00;;;;;;;;5037725;28;46100;-66
2022/09/28 10:49:24;;;;;;;;;1.00;1.00;;;;;;;;5035963;28;46315;-66
2022/09/28 10:51:50;;;;;;;;;1.75;0.00;;;;;;;;5049980;28;45432;-65
2022/09/28 10:54:23;;;;;;;;;2.25;0.75;;;;;;;;5042695;28;45276;-65
2022/09/28 10:56:49;;;;;;;;;4.00;1.00;;;;;;;;5045109;28;45412;-65
2022/09/28 10:59:22;;;;;;;;;0.00;0.00;;;;;;;;5037386;28;48121;-65
2022/09/28 11:01:51;;;;;;;;;1.00;1.00;;;;;;;;5019691;28;45750;-65
2022/09/28 11:04:19;;;;;;;;;1.00;1.00;;;;;;;;5036485;28;45558;-65
2022/09/28 11:06:45;;;;;;;;;1.00;1.00;;;;;;;;5036246;28;45862;-64
2022/09/28 11:09:30;;;;;;;;;0.50;0.50;;;;;;;;5040139;28;46198;-68
2022/09/28 11:11:59;;;;;;;;;3.50;1.25;;;;;;;;5038373;28;45605;-66
2022/09/28 11:14:26;;;;;;;;;1.75;1.00;;;;;;;;5038505;28;45412;-65
2022/09/28 11:17:10;;;;;;;;;1.00;0.00;;;;;;;;5037643;28;45491;-65
2022/09/28 11:19:35;;;;;;;;;2.25;0.50;;;;;;;;5038948;28;47122;-66
2022/09/28 11:22:01;;;;;;;;;1.00;1.00;;;;;;;;5039407;28;46687;-66
2022/09/28 11:24:26;;;;;;;;;0.00;0.00;;;;;;;;5039862;28;45511;-66
2022/09/28 11:26:55;;;;;;;;;0.00;0.00;;;;;;;;5037126;28;45509;-66
2022/09/28 11:29:27;;;;;;;;;2.25;1.00;;;;;;;;5041048;28;45711;-67
2022/09/28 11:31:52;;;;;;;;;1.00;1.00;;;;;;;;5036282;28;45322;-64
2022/09/28 11:34:22;;;;;;;;;1.50;0.75;;;;;;;;5033670;28;45394;-65
2022/09/28 11:36:50;;;;;;;;;2.50;1.00;;;;;;;;5028416;28;45489;-64
2022/09/28 11:39:19;;;;;;;;;2.50;1.00;;;;;;;;5032264;28;45509;-66
2022/09/28 11:41:53;;;;;;;;;1.00;1.00;;;;;;;;5032726;28;45373;-64
2022/09/28 11:44:36;;;;;;;;;0.50;0.25;;;;;;;;5040168;28;45519;-66
2022/09/28 11:47:01;;;;;;;;;0.25;0.25;;;;;;;;5025683;28;45597;-66
2022/09/28 11:49:42;;;;;;;;;1.00;1.00;;;;;;;;5029148;28;46337;-66
2022/09/28 11:52:28;;;;;;;;;5.00;1.00;;;;;;;;5030967;28;45512;-66
2022/09/28 11:54:56;;;;;;;;;1.50;1.50;;;;;;;;5024624;28;45399;-65
2022/09/28 11:57:24;;;;;;;;;3.25;0.00;;;;;;;;5034101;28;45570;-66
2022/09/28 11:59:49;;;;;;;;;0.00;0.00;;;;;;;;5037395;28;46168;-66
2022/09/28 12:02:18;;;;;;;;;1.50;0.50;;;;;;;;5035567;28;45510;-67
2022/09/28 12:05:06;;;;;;;;;2.25;0.50;;;;;;;;5038953;28;45587;-67
2022/09/28 12:07:49;;;;;;;;;1.00;1.00;;;;;;;;5017991;28;45864;-66
2022/09/28 12:10:18;;;;;;;;;2.50;1.00;;;;;;;;5034739;28;46251;-67
2022/09/28 12:13:02;;;;;;;;;3.00;1.00;;;;;;;;5036512;28;45454;-66
2022/09/28 12:15:32;;;;;;;;;2.00;1.00;;;;;;;;5035810;28;46228;-65
2022/09/28 12:18:06;;;;;;;;;1.00;1.00;;;;;;;;5030090;28;45527;-65
2022/09/28 12:20:34;;;;;;;;;5.25;2.00;;;;;;;;5032830;28;45474;-65
2022/09/28 12:23:08;;;;;;;;;1.75;1.75;;;;;;;;5024960;28;45377;-66
2022/09/28 12:25:38;;;;;;;;;2.25;1.25;;;;;;;;5045166;28;45419;-66
2022/09/28 12:28:06;;;;;;;;;1.75;1.50;;;;;;;;5043227;28;45643;-66
2022/09/28 12:30:36;;;;;;;;;1.50;1.00;;;;;;;;5037684;28;45404;-66
2022/09/28 12:33:03;;;;;;;;;1.00;1.00;;;;;;;;5036693;28;45490;-66
2022/09/28 12:35:31;;;;;;;;;3.00;2.75;;;;;;;;5042160;28;45359;-66
2022/09/28 12:38:15;;;;;;;;;1.25;1.25;;;;;;;;5046153;28;45669;-66
2022/09/28 12:40:50;;;;;;;;;1.75;1.00;;;;;;;;5036417;28;45525;-66
2022/09/28 12:43:34;;;;;;;;;1.50;1.25;;;;;;;;5036152;28;45459;-66
2022/09/28 12:46:03;;;;;;;;;0.75;0.75;;;;;;;;5033807;28;45842;-65
2022/09/28 12:48:46;;;;;;;;;2.50;1.75;;;;;;;;5037692;28;46000;-66
2022/09/28 12:51:26;;;;;;;;;2.00;1.00;;;;;;;;5036378;28;45549;-66
2022/09/28 12:53:59;;;;;;;;;0.50;0.50;;;;;;;;5035981;28;45431;-65
2022/09/28 12:56:45;;;;;;;;;2.00;2.00;;;;;;;;5017992;28;45400;-65
2022/09/28 12:59:18;;;;;;;;;5.67;4.00;;;;;;;;5035837;28;45466;-65
2022/09/28 13:01:52;;;;;;;;;2.00;1.25;;;;;;;;5033903;28;47153;-65
2022/09/28 13:04:26;;;;;;;;;1.00;1.00;;;;;;;;5027976;28;45557;-64
2022/09/28 13:07:12;;;;;;;;;2.00;2.00;;;;;;;;5035856;28;45385;-64
2022/09/28 13:09:56;;;;;;;;;1.00;1.00;;;;;;;;5038322;28;46440;-65
2022/09/28 13:12:29;;;;;;;;;2.00;1.00;;;;;;;;5031989;28;45873;-65
2022/09/28 13:15:05;;;;;;;;;1.25;1.00;;;;;;;;5042878;28;45405;-65
2022/09/28 13:17:44;;;;;;;;;1.00;1.00;;;;;;;;5042934;28;45683;-64
2022/09/28 13:20:34;;;;;;;;;2.50;2.00;;;;;;;;5042261;28;45418;-65
2022/09/28 13:23:00;;;;;;;;;1.00;1.00;;;;;;;;5037847;28;46339;-65
2022/09/28 13:25:27;;;;;;;;;1.75;1.25;;;;;;;;5035825;28;45669;-65
2022/09/28 13:27:58;;;;;;;;;4.00;2.25;;;;;;;;5037904;28;45697;-66
2022/09/28 13:30:24;;;;;;;;;2.75;2.00;;;;;;;;5039001;28;46639;-65
2022/09/28 13:32:50;;;;;;;;;1.50;1.50;;;;;;;;5037398;28;46105;-66
2022/09/28 13:35:19;;;;;;;;;1.25;1.25;;;;;;;;5039202;28;45450;-65
2022/09/28 13:37:44;;;;;;;;;1.00;1.00;;;;;;;;5037709;28;45537;-65
2022/09/28 13:40:10;;;;;;;;;1.00;1.00;;;;;;;;5037541;28;45348;-65
2022/09/28 13:42:38;;;;;;;;;3.50;2.50;;;;;;;;5039151;28;46111;-66
2022/09/28 13:45:08;;;;;;;;;2.00;1.00;;;;;;;;5040389;28;45225;-67
2022/09/28 13:47:52;;;;;;;;;1.50;1.50;;;;;;;;5037781;28;45391;-66
2022/09/28 13:50:36;;;;;;;;;4.00;1.00;;;;;;;;5029613;28;45444;-64
2022/09/28 13:53:04;;;;;;;;;0.00;0.00;;;;;;;;5031520;28;45450;-65
2022/09/28 13:55:32;;;;;;;;;2.00;0.75;;;;;;;;5029001;28;45646;-65
2022/09/28 13:58:03;;;;;;;;;2.25;2.00;;;;;;;;5029723;28;45399;-65
2022/09/28 14:00:37;;;;;;;;;1.50;1.50;;;;;;;;5038274;28;45533;-66
2022/09/28 14:03:05;;;;;;;;;3.25;1.00;;;;;;;;5036194;28;47058;-65
2022/09/28 14:05:33;;;;;;;;;2.00;2.00;;;;;;;;5026423;28;45489;-63
2022/09/28 14:08:07;;;;;;;;;2.00;2.00;;;;;;;;5040003;28;45457;-75
2022/09/28 14:10:50;;;;;;;;;1.00;1.00;;;;;;;;5037424;28;45415;-66
2022/09/28 14:13:34;;;;;;;;;1.67;1.00;;;;;;;;5040186;28;47556;-65
2022/09/28 14:16:19;;;;;;;;;1.00;1.00;;;;;;;;5041130;28;46505;-65
2022/09/28 14:18:48;;;;;;;;;3.00;2.00;;;;;;;;5036335;28;45333;-66
2022/09/28 14:21:16;;;;;;;;;3.00;1.00;;;;;;;;5042016;28;45795;-65
2022/09/28 14:23:58;;;;;;;;;1.33;1.33;;;;;;;;5045670;28;46290;-65
2022/09/28 14:26:24;;;;;;;;;4.00;1.00;;;;;;;;5043731;28;45284;-65
2022/09/28 14:28:53;;;;;;;;;1.00;1.00;;;;;;;;5044772;28;45609;-65
2022/09/28 14:31:24;;;;;;;;;3.33;2.00;;;;;;;;5043944;28;45351;-65
2022/09/28 14:34:00;;;;;;;;;3.33;2.00;;;;;;;;5045206;28;45433;-65
2022/09/28 14:42:14;;;;;;;;;2.00;2.00;;;;;;;;5044564;28;45229;-66
2022/09/28 14:44:58;;;;;;;;;3.33;2.00;;;;;;;;5039138;28;46399;-65
2022/09/28 14:47:24;;;;;;;;;2.00;2.00;;;;;;;;5037156;28;45305;-66
2022/09/28 14:49:59;;;;;;;;;2.00;2.00;;;;;;;;5036489;28;45421;-66
2022/09/28 14:52:38;;;;;;;;;2.33;2.00;;;;;;;;5033946;28;45435;-65
2022/09/28 14:55:10;;;;;;;;;3.67;3.00;;;;;;;;5037047;28;45478;-65
2022/09/28 14:57:39;;;;;;;;;2.00;2.00;;;;;;;;5038924;28;45283;-65
2022/09/28 15:00:07;;;;;;;;;4.67;1.00;;;;;;;;5037361;28;45370;-65
2022/09/28 15:02:34;;;;;;;;;1.00;1.00;;;;;;;;5038975;28;45540;-65
2022/09/28 15:05:16;;;;;;;;;1.00;1.00;;;;;;;;5038992;28;46035;-65
2022/09/28 15:07:45;;;;;;;;;3.33;2.00;;;;;;;;5038485;28;45309;-64
2022/09/28 15:10:30;;;;;;;;;0.33;0.33;;;;;;;;5033479;28;45402;-65
2022/09/28 15:12:56;;;;;;;;;0.33;0.33;;;;;;;;5035736;28;45633;-66
2022/09/28 15:15:28;;;;;;;;;2.00;2.00;;;;;;;;5033379;28;46125;-65
2022/09/28 15:18:16;;;;;;;;;4.67;3.00;;;;;;;;5038845;28;45307;-65
2022/09/28 15:20:45;;;;;;;;;0.67;0.67;;;;;;;;5032586;28;45382;-66
2022/09/28 15:23:24;;;;;;;;;2.33;1.33;;;;;;;;5039240;28;45444;-65
2022/09/28 15:25:53;;;;;;;;;1.00;1.00;;;;;;;;5038491;28;47040;-65
2022/09/28 15:28:22;;;;;;;;;1.67;1.67;;;;;;;;5033463;28;45492;-65
2022/09/28 15:30:48;;;;;;;;;0.67;0.67;;;;;;;;5033517;28;45334;-65
2022/09/28 15:36:12;;;;;;;;;1.00;1.00;;;;;;;;5035420;28;45875;-65
2022/09/28 15:38:39;;;;;;;;;1.00;1.00;;;;;;;;5038388;28;45334;-65
2022/09/28 15:41:05;;;;;;;;;1.00;1.00;;;;;;;;5034107;28;45321;-65
2022/09/28 15:43:32;;;;;;;;;0.00;0.00;;;;;;;;5038687;28;45566;-65
2022/09/28 15:46:03;;;;;;;;;0.00;0.00;;;;;;;;5038425;28;46193;-65
2022/09/28 15:48:49;;;;;;;;;1.00;1.00;;;;;;;;5038900;28;45382;-65
2022/09/28 15:51:15;;;;;;;;;0.67;0.67;;;;;;;;5039056;28;45348;-65
2022/09/28 15:53:42;;;;;;;;;1.00;1.00;;;;;;;;5038370;28;45377;-65
2022/09/28 15:56:11;;;;;;;;;0.00;0.00;;;;;;;;5038022;28;45335;-65
2022/09/28 15:58:36;;;;;;;;;1.00;1.00;;;;;;;;5036909;28;45357;-65
2022/09/28 16:01:20;;;;;;;;;1.00;1.00;;;;;;;;5029128;28;45544;-66
2022/09/28 16:03:45;;;;;;;;;2.00;2.00;;;;;;;;5033383;28;45506;-65
2022/09/28 16:06:11;;;;;;;;;4.00;4.00;;;;;;;;5031434;28;46098;-65
2022/09/28 16:08:36;;;;;;;;;4.33;4.33;;;;;;;;5034232;28;45561;-65
2022/09/28 16:11:07;;;;;;;;;4.00;4.00;;;;;;;;5018337;28;45313;-65
2022/09/28 16:13:34;;;;;;;;;3.33;2.67;;;;;;;;5037160;28;45454;-65
2022/09/28 16:15:59;;;;;;;;;2.33;2.33;;;;;;;;5034824;28;45639;-65
2022/09/28 16:18:29;;;;;;;;;3.33;2.00;;;;;;;;5033509;28;45375;-64
2022/09/28 16:20:55;;;;;;;;;1.33;1.33;;;;;;;;5028806;28;45415;-64
2022/09/28 16:23:26;;;;;;;;;1.00;1.00;;;;;;;;5033454;28;45352;-65
2022/09/28 16:25:59;;;;;;;;;2.00;2.00;;;;;;;;5036062;28;46301;-65
2022/09/28 16:28:33;;;;;;;;;1.00;1.00;;;;;;;;5037300;28;45362;-69
2022/09/28 16:31:02;;;;;;;;;2.00;2.00;;;;;;;;5025893;28;45535;-71
2022/09/28 16:33:38;;;;;;;;;2.67;1.67;;;;;;;;5029234;28;45526;-70
2022/09/28 16:36:04;;;;;;;;;1.33;1.33;;;;;;;;5036270;28;45456;-65
2022/09/28 16:38:29;;;;;;;;;4.00;2.33;;;;;;;;5034483;28;45657;-65
2022/09/28 16:40:59;;;;;;;;;4.00;2.67;;;;;;;;5034724;28;45292;-65
2022/09/28 16:43:29;;;;;;;;;4.00;3.00;;;;;;;;5033761;28;45605;-65
2022/09/28 16:45:58;;;;;;;;;2.00;2.00;;;;;;;;5035499;28;46323;-65
2022/09/28 16:48:30;;;;;;;;;3.33;3.33;;;;;;;;5029630;28;45332;-65
2022/09/28 16:50:56;;;;;;;;;3.67;2.67;;;;;;;;5024590;28;45502;-64
2022/09/28 16:56:06;;;;;;;;;3.33;2.00;;;;;;;;5032433;28;45843;-63
2022/09/28 16:58:32;;;;;;;;;1.00;1.00;;;;;;;;5036495;28;45438;-66
2022/09/28 17:00:57;;;;;;;;;2.00;2.00;;;;;;;;5033879;28;45454;-65
2022/09/28 17:03:23;;;;;;;;;3.00;1.00;;;;;;;;5035410;28;45279;-64
2022/09/28 17:05:49;;;;;;;;;1.00;1.00;;;;;;;;5036697;28;46947;-65
2022/09/28 17:08:18;;;;;;;;;3.33;2.00;;;;;;;;5040433;28;46244;-64
2022/09/28 17:10:54;;;;;;;;;2.67;2.67;;;;;;;;5032052;28;45698;-64
2022/09/28 17:13:22;;;;;;;;;4.00;3.00;;;;;;;;5037715;28;45533;-64
2022/09/28 17:15:49;;;;;;;;;3.67;3.00;;;;;;;;5033493;28;46137;-64
2022/09/28 17:18:15;;;;;;;;;1.33;1.33;;;;;;;;5036208;28;45599;-66
2022/09/28 17:20:42;;;;;;;;;3.33;2.67;;;;;;;;5033384;28;45356;-65
2022/09/28 17:23:07;;;;;;;;;2.67;2.00;;;;;;;;5038663;28;45408;-65
2022/09/28 17:25:32;;;;;;;;;3.00;1.67;;;;;;;;5016872;28;46059;-64
2022/09/28 17:27:58;;;;;;;;;2.33;1.00;;;;;;;;5034275;28;45387;-65
2022/09/28 17:30:24;;;;;;;;;1.00;1.00;;;;;;;;5033611;28;45335;-65
2022/09/28 17:32:50;;;;;;;;;1.00;0.67;;;;;;;;5040236;28;45387;-66
2022/09/28 17:35:16;;;;;;;;;0.67;0.67;;;;;;;;5033555;28;46959;-65
2022/09/28 17:37:41;;;;;;;;;3.33;1.00;;;;;;;;5038394;28;45442;-65
2022/09/28 17:40:24;;;;;;;;;1.67;1.67;;;;;;;;5032137;28;45308;-65
2022/09/28 17:42:49;;;;;;;;;1.33;0.67;;;;;;;;5033035;28;45409;-66
2022/09/28 17:45:15;;;;;;;;;0.33;0.33;;;;;;;;5035858;28;46925;-64
2022/09/28 17:47:41;;;;;;;;;0.67;0.67;;;;;;;;5036772;28;45544;-65
2022/09/28 17:50:26;;;;;;;;;2.00;2.00;;;;;;;;5039868;28;45395;-65
2022/09/28 17:52:51;;;;;;;;;0.33;0.33;;;;;;;;5033224;28;45449;-65
2022/09/28 17:55:27;;;;;;;;;1.33;1.33;;;;;;;;5038441;28;46764;-64
2022/09/28 17:57:53;;;;;;;;;1.00;1.00;;;;;;;;5045046;28;45311;-65
2022/09/28 18:00:18;;;;;;;;;1.00;1.00;;;;;;;;5048743;28;45355;-66
2022/09/28 18:02:43;;;;;;;;;1.67;1.33;;;;;;;;5047825;28;45402;-64
2022/09/28 18:05:10;;;;;;;;;3.67;1.33;;;;;;;;5052205;28;46986;-64
2022/09/28 18:07:39;;;;;;;;;4.00;4.00;;;;;;;;5044942;28;45371;-65
2022/09/28 18:10:05;;;;;;;;;9.67;9.67;;;;;;;;5034608;28;46726;-66
2022/09/28 18:12:31;;;;;;;;;13.67;12.00;;;;;;;;5037391;28;45605;-66
2022/09/28 18:14:56;;;;;;;;;14.67;14.67;;;;;;;;5037956;28;45973;-64
2022/09/28 18:17:21;;;;;;;;;11.00;10.67;;;;;;;;5040124;28;45316;-64
2022/09/28 18:19:46;;;;;;;;;5.00;4.67;;;;;;;;5037425;28;45509;-64
2022/09/28 18:22:11;;;;;;;;;8.00;6.67;;;;;;;;5039029;28;45221;-64
2022/09/28 18:24:36;;;;;;;;;4.67;4.67;;;;;;;;5048103;28;46517;-65
2022/09/28 18:27:02;;;;;;;;;2.00;2.00;;;;;;;;5044411;28;45612;-65
2022/09/28 18:29:27;;;;;;;;;2.67;2.67;;;;;;;;5043120;28;45518;-64
2022/09/28 18:31:52;;;;;;;;;3.00;2.00;;;;;;;;5036757;28;45321;-65
2022/09/28 18:34:17;;;;;;;;;5.00;5.00;;;;;;;;5039390;28;45417;-64
2022/09/28 18:36:42;;;;;;;;;4.00;4.00;;;;;;;;5039160;28;45347;-68
2022/09/28 18:39:07;;;;;;;;;4.00;4.00;;;;;;;;5039382;28;45492;-65
2022/09/28 18:41:33;;;;;;;;;4.67;3.00;;;;;;;;5037814;28;45166;-65
2022/09/28 18:44:01;;;;;;;;;2.67;2.67;;;;;;;;5038695;28;46254;-64
2022/09/28 18:46:27;;;;;;;;;2.00;2.00;;;;;;;;5039434;28;45394;-64
2022/09/28 18:48:53;;;;;;;;;5.00;4.00;;;;;;;;5041572;28;45998;-64
2022/09/28 18:51:19;;;;;;;;;4.33;4.33;;;;;;;;5047744;28;45349;-64
2022/09/28 18:53:44;;;;;;;;;3.67;3.67;;;;;;;;5021470;28;45771;-63
2022/09/28 18:56:17;;;;;;;;;5.00;5.00;;;;;;;;5043305;28;45470;-63
2022/09/28 18:58:42;;;;;;;;;5.00;4.00;;;;;;;;5044934;28;45334;-63
2022/09/28 19:01:09;;;;;;;;;5.67;5.00;;;;;;;;5045861;28;45521;-64
2022/09/28 19:03:34;;;;;;;;;6.00;6.00;;;;;;;;5041533;28;45604;-64
2022/09/28 19:05:59;;;;;;;;;5.33;5.00;;;;;;;;5053912;28;45290;-64
2022/09/28 19:08:24;;;;;;;;;7.67;6.00;;;;;;;;5040090;28;45612;-63
2022/09/28 19:10:50;;;;;;;;;4.00;4.00;;;;;;;;5033523;28;45438;-64
2022/09/28 19:13:15;;;;;;;;;5.67;5.67;;;;;;;;5040270;28;45508;-64
2022/09/28 19:15:40;;;;;;;;;6.67;6.67;;;;;;;;5051401;28;45271;-65
2022/09/28 19:18:05;;;;;;;;;9.00;7.00;;;;;;;;5043550;28;45675;-65
2022/09/28 19:20:31;;;;;;;;;5.00;5.00;;;;;;;;5045207;28;45317;-65
2022/09/28 19:22:58;;;;;;;;;6.00;5.00;;;;;;;;5046500;28;45267;-64
2022/09/28 19:25:23;;;;;;;;;2.00;2.00;;;;;;;;5052680;28;45289;-64
2022/09/28 19:27:48;;;;;;;;;8.00;7.00;;;;;;;;5040568;28;45387;-64
2022/09/28 19:30:13;;;;;;;;;11.00;11.00;;;;;;;;5046613;28;45295;-63
2022/09/28 19:32:38;;;;;;;;;11.33;10.00;;;;;;;;5033451;28;46122;-64
2022/09/28 19:35:04;;;;;;;;;12.67;11.33;;;;;;;;5043116;28;45444;-64
2022/09/28 19:37:30;;;;;;;;;15.67;11.33;;;;;;;;5041347;28;45274;-63
2022/09/28 19:39:55;;;;;;;;;11.00;11.00;;;;;;;;5046669;28;45280;-63
2022/09/28 19:42:21;;;;;;;;;19.67;14.67;;;;;;;;5035408;28;46876;-63